createdAt,value
2017-12-28T00:01:48.980Z,3.30
2017-12-28T00:04:24.167Z,3.30
2017-12-28T00:06:58.358Z,3.40
2017-12-28T00:09:33.445Z,3.30
2017-12-28T00:12:06.936Z,3.70
2017-12-28T00:14:41.678Z,3.30
2017-12-28T00:17:16.841Z,3.50
2017-12-28T00:19:51.319Z,3.50
2017-12-28T00:22:26.969Z,3.10
2017-12-28T00:25:02.117Z,3.00
2017-12-28T00:27:40.419Z,3.00
2017-12-28T00:30:12.621Z,3.00
2017-12-28T00:32:44.695Z,3.00
2017-12-28T00:35:17.923Z,2.70
2017-12-28T00:37:49.938Z,3.00
2017-12-28T00:40:22.656Z,2.80
2017-12-28T00:42:54.686Z,2.60
2017-12-28T00:45:28.055Z,2.80
2017-12-28T00:48:01.299Z,3.00
2017-12-28T00:50:33.715Z,3.00
2017-12-28T00:53:06.331Z,3.00
2017-12-28T00:55:38.390Z,3.10
2017-12-28T00:58:10.046Z,3.00
2017-12-28T01:00:42.109Z,3.00
2017-12-28T01:03:16.556Z,3.40
2017-12-28T01:05:49.564Z,3.00
2017-12-28T01:08:26.457Z,3.20
2017-12-28T01:10:59.108Z,3.00
2017-12-28T01:13:30.674Z,3.00
2017-12-28T01:16:06.580Z,3.00
2017-12-28T01:18:42.650Z,3.00
2017-12-28T01:21:17.238Z,3.30
2017-12-28T01:23:50.917Z,3.40
2017-12-28T01:26:37.160Z,3.20
2017-12-28T01:29:11.500Z,3.50
2017-12-28T01:31:45.530Z,3.30
2017-12-28T01:34:20.046Z,3.20
2017-12-28T01:36:57.534Z,2.80
2017-12-28T01:39:31.432Z,2.50
2017-12-28T01:42:10.101Z,2.50
2017-12-28T01:44:52.313Z,2.50
2017-12-28T01:47:32.381Z,2.30
2017-12-28T01:50:05.090Z,2.10
2017-12-28T01:52:39.641Z,2.50
2017-12-28T01:55:13.982Z,2.30
2017-12-28T01:57:59.020Z,2.70
2017-12-28T02:00:35.101Z,2.50
2017-12-28T02:03:16.555Z,2.50
2017-12-28T02:05:56.553Z,2.40
2017-12-28T02:08:33.351Z,2.70
2017-12-28T02:13:49.284Z,2.80
2017-12-28T02:16:24.946Z,2.90
2017-12-28T02:24:17.496Z,3.10
2017-12-28T02:26:52.045Z,3.10
2017-12-28T02:29:36.125Z,3.00
2017-12-28T02:32:09.452Z,3.00
2017-12-28T02:34:44.388Z,3.10
2017-12-28T02:37:19.048Z,3.00
2017-12-28T02:39:52.608Z,3.30
2017-12-28T02:42:30.900Z,3.20
2017-12-28T02:45:08.997Z,3.30
2017-12-28T02:47:42.884Z,3.20
2017-12-28T02:50:18.120Z,3.20
2017-12-28T02:52:50.375Z,3.30
2017-12-28T02:55:27.726Z,3.40
2017-12-28T02:58:03.662Z,3.30
2017-12-28T03:00:37.703Z,3.30
2017-12-28T03:03:13.414Z,3.30
2017-12-28T03:05:51.121Z,3.50
2017-12-28T03:08:24.431Z,3.50
2017-12-28T03:10:58.817Z,3.50
2017-12-28T03:13:32.956Z,3.50
2017-12-28T03:16:10.741Z,3.30
2017-12-28T03:18:49.356Z,3.30
2017-12-28T03:21:26.456Z,3.30
2017-12-28T03:24:03.306Z,3.20
2017-12-28T03:26:42.577Z,3.40
2017-12-28T03:29:19.417Z,3.30
2017-12-28T03:31:54.075Z,3.30
2017-12-28T03:34:34.163Z,3.30
2017-12-28T03:37:06.260Z,3.50
2017-12-28T03:39:43.110Z,3.20
2017-12-28T03:42:19.423Z,3.30
2017-12-28T03:44:54.996Z,3.50
2017-12-28T03:47:29.603Z,3.00
2017-12-28T03:50:05.877Z,3.20
2017-12-28T03:52:39.565Z,3.20
2017-12-28T03:55:17.041Z,3.10
2017-12-28T03:57:50.117Z,3.00
2017-12-28T04:00:23.566Z,3.00
2017-12-28T04:03:01.037Z,3.00
2017-12-28T04:05:37.616Z,3.20
2017-12-28T04:08:12.392Z,3.50
2017-12-28T04:10:47.477Z,3.20
2017-12-28T04:13:23.701Z,3.30
2017-12-28T04:16:00.840Z,3.30
2017-12-28T04:18:37.069Z,3.20
2017-12-28T04:21:16.500Z,3.20
2017-12-28T04:23:52.652Z,3.40
2017-12-28T04:26:26.080Z,3.50
2017-12-28T04:29:05.993Z,3.30
2017-12-28T04:31:45.602Z,3.00
2017-12-28T04:34:21.044Z,3.00
2017-12-28T04:36:57.816Z,3.00
2017-12-28T04:39:34.993Z,3.00
2017-12-28T04:42:18.532Z,3.10
2017-12-28T04:44:54.018Z,3.00
2017-12-28T04:47:30.119Z,3.40
2017-12-28T04:50:07.773Z,3.50
2017-12-28T04:52:43.095Z,3.30
2017-12-28T04:55:18.518Z,3.20
2017-12-28T04:57:52.202Z,3.60
2017-12-28T05:00:36.040Z,3.50
2017-12-28T05:03:13.213Z,3.50
2017-12-28T05:05:48.016Z,3.80
2017-12-28T05:08:23.205Z,3.50
2017-12-28T05:10:57.734Z,3.60
2017-12-28T05:13:36.250Z,3.60
2017-12-28T05:16:11.130Z,3.70
2017-12-28T05:18:44.297Z,3.50
2017-12-28T05:21:20.223Z,3.60
2017-12-28T05:26:39.742Z,3.60
2017-12-28T05:29:14.829Z,4.00
2017-12-28T05:31:50.906Z,4.00
2017-12-28T05:34:24.920Z,3.60
2017-12-28T05:36:58.616Z,4.10
2017-12-28T05:39:33.801Z,3.90
2017-12-28T05:42:11.833Z,3.60
2017-12-28T05:44:45.526Z,3.60
2017-12-28T05:47:19.752Z,3.60
2017-12-28T05:49:56.240Z,3.70
2017-12-28T05:55:15.732Z,3.50
2017-12-28T05:57:52.128Z,3.50
2017-12-28T06:00:28.306Z,3.60
2017-12-28T06:03:04.629Z,3.60
2017-12-28T06:05:42.244Z,3.60
2017-12-28T06:08:16.321Z,3.60
2017-12-28T06:10:55.325Z,3.50
2017-12-28T06:13:34.734Z,3.50
2017-12-28T06:16:09.126Z,3.50
2017-12-28T06:18:44.500Z,3.50
2017-12-28T06:21:19.128Z,3.90
2017-12-28T06:23:53.301Z,4.10
2017-12-28T06:26:27.593Z,3.60
2017-12-28T06:29:04.588Z,3.70
2017-12-28T06:31:52.885Z,3.90
2017-12-28T06:34:26.273Z,3.60
2017-12-28T06:37:06.360Z,3.60
2017-12-28T06:39:42.285Z,3.10
2017-12-28T06:42:15.008Z,3.20
2017-12-28T06:44:51.541Z,3.00
2017-12-28T06:47:26.085Z,3.00
2017-12-28T06:50:03.914Z,3.30
2017-12-28T06:52:47.154Z,3.10
2017-12-28T06:55:24.716Z,3.30
2017-12-28T06:58:00.661Z,3.30
2017-12-28T07:00:35.015Z,3.30
2017-12-28T07:03:10.809Z,3.20
2017-12-28T07:05:46.960Z,3.30
2017-12-28T07:08:21.834Z,3.30
2017-12-28T07:10:59.957Z,3.50
2017-12-28T07:13:36.207Z,3.60
2017-12-28T07:16:13.316Z,3.60
2017-12-28T07:18:48.158Z,3.70
2017-12-28T07:21:29.506Z,3.60
2017-12-28T07:24:13.041Z,3.60
2017-12-28T07:26:52.394Z,4.10
2017-12-28T07:29:29.424Z,4.00
2017-12-28T07:32:03.871Z,3.80
2017-12-28T07:34:39.609Z,3.90
2017-12-28T07:37:14.641Z,3.80
2017-12-28T07:39:51.439Z,3.90
2017-12-28T07:42:24.552Z,3.90
2017-12-28T07:44:58.940Z,3.80
2017-12-28T07:47:34.556Z,4.10
2017-12-28T07:50:09.846Z,3.90
2017-12-28T07:52:48.872Z,3.80
2017-12-28T07:55:25.210Z,3.90
2017-12-28T07:58:01.304Z,3.60
2017-12-28T08:00:37.365Z,3.50
2017-12-28T08:03:13.000Z,3.50
2017-12-28T08:05:46.393Z,3.70
2017-12-28T08:08:22.862Z,3.50
2017-12-28T08:10:56.910Z,3.50
2017-12-28T08:13:35.410Z,3.40
2017-12-28T08:16:10.413Z,3.30
2017-12-28T08:18:45.436Z,3.30
2017-12-28T08:21:22.273Z,3.50
2017-12-28T08:23:56.971Z,3.70
2017-12-28T08:26:32.920Z,3.80
2017-12-28T08:29:08.872Z,3.60
2017-12-28T08:31:45.459Z,3.60
2017-12-28T08:34:24.197Z,3.50
2017-12-28T08:36:59.037Z,3.60
2017-12-28T08:39:32.617Z,3.70
2017-12-28T08:42:08.426Z,3.50
2017-12-28T08:44:43.446Z,3.60
2017-12-28T08:47:18.393Z,3.60
2017-12-28T08:49:52.253Z,3.60
2017-12-28T08:52:27.077Z,3.80
2017-12-28T08:55:01.476Z,3.80
2017-12-28T08:57:35.778Z,3.60
2017-12-28T09:00:11.687Z,3.50
2017-12-28T09:02:48.652Z,3.50
2017-12-28T09:05:27.827Z,3.50
2017-12-28T09:08:02.321Z,3.60
2017-12-28T09:10:38.540Z,3.50
2017-12-28T09:13:16.013Z,3.50
2017-12-28T09:15:53.493Z,3.70
2017-12-28T09:18:32.088Z,3.60
2017-12-28T09:21:05.734Z,3.70
2017-12-28T09:23:42.399Z,3.90
2017-12-28T09:26:17.328Z,3.50
2017-12-28T09:28:53.350Z,3.60
2017-12-28T09:31:28.500Z,3.60
2017-12-28T09:34:01.642Z,3.70
2017-12-28T09:39:16.212Z,3.60
2017-12-28T09:42:02.597Z,3.40
2017-12-28T09:44:38.999Z,3.40
2017-12-28T09:47:14.871Z,3.50
2017-12-28T09:49:48.487Z,3.40
2017-12-28T09:52:22.823Z,3.30
2017-12-28T09:55:04.404Z,3.50
2017-12-28T09:57:39.371Z,3.60
2017-12-28T10:00:19.750Z,3.50
2017-12-28T10:02:53.637Z,3.50
2017-12-28T10:05:32.172Z,3.80
2017-12-28T10:08:07.165Z,3.60
2017-12-28T10:10:42.851Z,4.00
2017-12-28T10:13:18.447Z,3.90
2017-12-28T10:15:56.570Z,3.90
2017-12-28T10:18:30.875Z,3.90
2017-12-28T10:21:05.295Z,4.00
2017-12-28T10:23:44.202Z,3.50
2017-12-28T10:26:20.801Z,3.60
2017-12-28T10:28:52.774Z,3.60
2017-12-28T10:31:26.940Z,3.50
2017-12-28T10:34:00.074Z,3.30
2017-12-28T10:36:35.794Z,3.30
2017-12-28T10:39:09.449Z,3.80
2017-12-28T10:41:41.640Z,3.50
2017-12-28T10:44:18.508Z,3.50
2017-12-28T10:46:54.094Z,3.50
2017-12-28T10:49:27.847Z,3.60
2017-12-28T10:52:02.164Z,3.60
2017-12-28T10:54:40.368Z,3.80
2017-12-28T10:57:14.601Z,3.80
2017-12-28T10:59:51.140Z,4.10
2017-12-28T11:02:27.834Z,3.70
2017-12-28T11:05:03.952Z,3.80
2017-12-28T11:07:38.503Z,3.80
2017-12-28T11:10:19.117Z,3.50
2017-12-28T11:12:53.516Z,3.40
2017-12-28T11:15:29.532Z,3.30
2017-12-28T11:18:05.228Z,3.20
2017-12-28T11:20:43.425Z,3.50
2017-12-28T11:23:23.037Z,3.50
2017-12-28T11:25:57.363Z,3.60
2017-12-28T11:28:33.476Z,3.70
2017-12-28T11:31:11.215Z,3.80
2017-12-28T11:33:46.230Z,3.60
2017-12-28T11:36:28.875Z,3.90
2017-12-28T11:39:04.886Z,3.70
2017-12-28T11:41:40.513Z,3.80
2017-12-28T11:44:20.351Z,3.80
2017-12-28T11:46:57.336Z,3.90
2017-12-28T11:49:37.579Z,3.90
2017-12-28T11:52:10.781Z,3.90
2017-12-28T11:54:45.819Z,3.80
2017-12-28T11:57:26.493Z,3.80
2017-12-28T12:00:09.213Z,3.60
2017-12-28T12:02:46.306Z,3.60
2017-12-28T12:05:26.556Z,3.50
2017-12-28T12:08:06.650Z,3.50
2017-12-28T12:10:48.353Z,3.60
2017-12-28T12:13:23.425Z,3.50
2017-12-28T12:15:59.638Z,3.50
2017-12-28T12:18:39.127Z,3.60
2017-12-28T12:21:14.823Z,3.40
2017-12-28T12:23:50.611Z,3.30
2017-12-28T12:26:25.776Z,3.30
2017-12-28T12:29:09.640Z,3.30
2017-12-28T12:31:46.243Z,3.70
2017-12-28T12:34:21.325Z,3.50
2017-12-28T12:36:58.726Z,3.30
2017-12-28T12:39:34.554Z,3.70
2017-12-28T12:42:10.099Z,3.70
2017-12-28T12:44:44.699Z,3.50
2017-12-28T12:47:27.784Z,3.30
2017-12-28T12:50:03.020Z,3.30
2017-12-28T12:52:37.591Z,3.30
2017-12-28T12:55:13.829Z,3.40
2017-12-28T12:57:48.724Z,3.40
2017-12-28T13:00:23.124Z,3.40
2017-12-28T13:02:59.747Z,3.70
2017-12-28T13:05:38.483Z,3.50
2017-12-28T13:08:13.429Z,3.80
2017-12-28T13:10:48.428Z,3.30
2017-12-28T13:13:24.561Z,3.50
2017-12-28T13:16:01.339Z,3.20
2017-12-28T13:18:36.907Z,3.40
2017-12-28T13:21:15.051Z,3.60
2017-12-28T13:23:52.327Z,3.60
2017-12-28T13:26:30.216Z,3.50
2017-12-28T13:29:06.766Z,3.60
2017-12-28T13:31:42.413Z,3.60
2017-12-28T13:34:17.563Z,3.50
2017-12-28T13:36:54.130Z,3.90
2017-12-28T13:39:29.084Z,3.80
2017-12-28T13:42:06.090Z,4.10
2017-12-28T13:44:41.125Z,3.90
2017-12-28T13:47:24.738Z,3.90
2017-12-28T13:50:07.813Z,4.10
2017-12-28T13:52:41.753Z,3.80
2017-12-28T13:55:16.487Z,3.90
2017-12-28T13:57:52.874Z,3.90
2017-12-28T14:00:27.930Z,3.90
2017-12-28T14:03:06.981Z,3.90
2017-12-28T14:05:49.119Z,3.80
2017-12-28T14:08:26.029Z,3.90
2017-12-28T14:11:00.916Z,4.10
2017-12-28T14:13:41.338Z,3.80
2017-12-28T14:16:15.790Z,3.80
2017-12-28T14:18:49.136Z,3.90
2017-12-28T14:21:30.753Z,3.80
2017-12-28T14:24:04.963Z,3.90
2017-12-28T14:26:41.549Z,4.00
2017-12-28T14:29:24.618Z,3.80
2017-12-28T14:32:06.556Z,3.60
2017-12-28T14:34:40.517Z,3.50
2017-12-28T14:37:15.492Z,3.50
2017-12-28T14:39:50.897Z,3.80
2017-12-28T14:42:24.574Z,3.80
2017-12-28T14:44:59.231Z,3.80
2017-12-28T14:47:34.504Z,3.70
2017-12-28T14:50:10.470Z,3.80
2017-12-28T14:52:45.478Z,3.80
2017-12-28T14:55:19.176Z,3.80
2017-12-28T14:57:53.152Z,3.80
2017-12-28T15:00:31.490Z,3.80
2017-12-28T15:03:06.356Z,4.00
2017-12-28T15:05:41.762Z,3.80
2017-12-28T15:08:18.216Z,3.50
2017-12-28T15:10:51.465Z,3.80
2017-12-28T15:13:27.533Z,3.70
2017-12-28T15:16:01.360Z,3.60
2017-12-28T15:18:36.084Z,3.50
2017-12-28T15:21:11.155Z,3.50
2017-12-28T15:23:47.836Z,3.30
2017-12-28T15:26:24.010Z,3.20
2017-12-28T15:28:59.944Z,3.30
2017-12-28T15:31:34.895Z,3.00
2017-12-28T15:34:10.652Z,3.30
2017-12-28T15:36:47.740Z,3.40
2017-12-28T15:39:23.377Z,3.30
2017-12-28T15:42:02.831Z,3.30
2017-12-28T15:44:37.597Z,3.30
2017-12-28T15:47:12.395Z,3.30
2017-12-28T15:50:02.620Z,3.30
2017-12-28T15:52:38.394Z,3.50
2017-12-28T15:55:15.823Z,3.40
2017-12-28T15:57:51.765Z,3.40
2017-12-28T16:00:25.796Z,3.40
2017-12-28T16:03:01.013Z,3.40
2017-12-28T16:05:36.795Z,3.00
2017-12-28T16:08:11.759Z,3.20
2017-12-28T16:10:46.643Z,3.10
2017-12-28T16:13:20.780Z,3.20
2017-12-28T16:15:57.598Z,3.50
2017-12-28T16:18:32.400Z,3.30
2017-12-28T16:21:06.011Z,3.50
2017-12-28T16:23:41.706Z,3.30
2017-12-28T16:26:18.645Z,3.60
2017-12-28T16:28:55.518Z,3.60
2017-12-28T16:31:34.128Z,3.60
2017-12-28T16:34:09.122Z,3.70
2017-12-28T16:36:44.042Z,3.50
2017-12-28T16:39:26.712Z,3.60
2017-12-28T16:42:06.412Z,3.80
2017-12-28T16:44:40.205Z,3.60
2017-12-28T16:47:14.931Z,3.60
2017-12-28T16:49:49.083Z,3.80
2017-12-28T16:52:23.029Z,3.80
2017-12-28T16:54:58.038Z,3.80
2017-12-28T16:57:32.612Z,3.80
2017-12-28T17:00:08.399Z,3.90
2017-12-28T17:02:51.714Z,3.90
2017-12-28T17:05:35.760Z,4.00
2017-12-28T17:08:23.094Z,4.20
2017-12-28T17:11:01.712Z,3.80
2017-12-28T17:13:35.194Z,4.10
2017-12-28T17:16:09.661Z,3.90
2017-12-28T17:18:43.837Z,4.00
2017-12-28T17:21:18.357Z,4.10
2017-12-28T17:23:52.809Z,3.80
2017-12-28T17:26:27.044Z,3.80
2017-12-28T17:29:02.165Z,3.80
2017-12-28T17:31:37.924Z,3.80
2017-12-28T17:34:15.071Z,4.00
2017-12-28T17:36:49.903Z,3.80
2017-12-28T17:39:26.094Z,3.80
2017-12-28T17:42:02.464Z,3.90
2017-12-28T17:44:39.072Z,3.80
2017-12-28T17:47:14.133Z,3.80
2017-12-28T17:49:50.650Z,3.80
2017-12-28T17:52:26.487Z,4.30
2017-12-28T17:55:00.308Z,4.20
2017-12-28T17:57:33.307Z,4.20
2017-12-28T18:00:06.459Z,4.20
2017-12-28T18:02:45.264Z,4.50
2017-12-28T18:05:19.074Z,4.80
2017-12-28T18:07:56.706Z,4.80
2017-12-28T18:13:11.052Z,4.80
2017-12-28T18:15:44.224Z,4.80
2017-12-28T18:18:20.514Z,4.70
2017-12-28T18:20:55.175Z,4.80
2017-12-28T18:23:32.961Z,5.00
2017-12-28T18:26:09.418Z,4.70
2017-12-28T18:28:44.785Z,4.70
2017-12-28T18:31:18.961Z,5.10
2017-12-28T18:33:55.532Z,5.10
2017-12-28T18:36:32.586Z,5.00
2017-12-28T18:39:05.347Z,5.20
2017-12-28T18:41:39.063Z,5.00
2017-12-28T18:44:15.161Z,5.00
2017-12-28T18:46:49.368Z,5.00
2017-12-28T18:49:23.824Z,4.80
2017-12-28T18:51:57.369Z,4.80
2017-12-28T18:54:32.191Z,5.10
2017-12-28T18:57:08.084Z,5.00
2017-12-28T18:59:44.637Z,5.00
2017-12-28T19:02:23.571Z,5.10
2017-12-28T19:04:58.410Z,5.00
2017-12-28T19:07:32.690Z,4.70
2017-12-28T19:10:05.599Z,5.20
2017-12-28T19:12:41.567Z,5.40
2017-12-28T19:15:17.533Z,5.10
2017-12-28T19:17:50.940Z,5.30
2017-12-28T19:20:30.997Z,5.10
2017-12-28T19:23:04.775Z,5.10
2017-12-28T19:25:38.512Z,5.00
2017-12-28T19:28:13.775Z,4.80
2017-12-28T19:30:49.742Z,5.10
2017-12-28T19:33:25.081Z,5.00
2017-12-28T19:35:59.795Z,5.20
2017-12-28T19:38:36.185Z,5.30
2017-12-28T19:41:11.830Z,5.30
2017-12-28T19:43:46.243Z,5.40
2017-12-28T19:46:19.833Z,5.40
2017-12-28T19:48:54.709Z,5.10
2017-12-28T19:51:30.620Z,5.20
2017-12-28T19:54:15.407Z,4.80
2017-12-28T19:56:48.777Z,5.00
2017-12-28T19:59:22.559Z,4.80
2017-12-28T20:01:57.841Z,5.10
2017-12-28T20:04:34.927Z,5.30
2017-12-28T20:07:08.785Z,5.30
2017-12-28T20:09:45.684Z,5.40
2017-12-28T20:12:20.870Z,5.30
2017-12-28T20:14:56.072Z,5.40
2017-12-28T20:17:34.448Z,5.30
2017-12-28T20:20:09.379Z,5.60
2017-12-28T20:22:56.547Z,5.40
2017-12-28T20:25:32.526Z,5.30
2017-12-28T20:28:08.951Z,5.10
2017-12-28T20:30:43.916Z,5.10
2017-12-28T20:33:17.985Z,4.80
2017-12-28T20:36:00.901Z,4.80
2017-12-28T20:38:40.755Z,4.60
2017-12-28T20:41:16.505Z,4.60
2017-12-28T20:43:51.805Z,5.00
2017-12-28T20:46:27.649Z,4.80
2017-12-28T20:49:01.518Z,4.50
2017-12-28T20:51:36.697Z,4.90
2017-12-28T20:54:11.632Z,4.80
2017-12-28T20:56:52.461Z,5.10
2017-12-28T20:59:28.273Z,5.30
2017-12-28T21:02:04.847Z,5.60
2017-12-28T21:04:43.136Z,5.60
2017-12-28T21:07:19.457Z,5.70
2017-12-28T21:10:01.637Z,5.30
2017-12-28T21:12:39.850Z,5.70
2017-12-28T21:15:24.535Z,5.60
2017-12-28T21:18:03.019Z,5.60
2017-12-28T21:20:37.855Z,5.30
2017-12-28T21:23:22.829Z,5.60
2017-12-28T21:26:03.884Z,5.70
2017-12-28T21:28:41.511Z,5.70
2017-12-28T21:31:16.400Z,5.60
2017-12-28T21:33:57.215Z,5.30
2017-12-28T21:36:39.646Z,5.30
2017-12-28T21:39:22.712Z,5.50
2017-12-28T21:41:58.002Z,5.60
2017-12-28T21:44:34.487Z,5.50
2017-12-28T21:47:10.516Z,5.70
2017-12-28T21:49:45.697Z,5.70
2017-12-28T21:52:20.479Z,6.00
2017-12-28T21:54:55.545Z,5.90
2017-12-28T21:57:30.551Z,5.90
2017-12-28T22:00:06.205Z,5.90
2017-12-28T22:02:48.401Z,6.00
2017-12-28T22:05:24.534Z,5.70
2017-12-28T22:07:58.968Z,5.80
2017-12-28T22:10:32.307Z,5.50
2017-12-28T22:18:41.124Z,5.60
2017-12-28T22:21:17.462Z,5.30
2017-12-28T22:23:54.548Z,5.00
2017-12-28T22:26:29.365Z,5.30
2017-12-28T22:29:06.385Z,5.30
2017-12-28T22:31:45.206Z,5.20
2017-12-28T22:34:20.170Z,5.30
2017-12-28T22:36:54.574Z,5.40
2017-12-28T22:42:08.925Z,5.40
2017-12-28T22:44:45.617Z,5.40
2017-12-28T22:47:23.301Z,5.40
2017-12-28T22:49:58.971Z,5.30
2017-12-28T22:52:33.464Z,5.30
2017-12-28T22:55:11.308Z,5.30
2017-12-28T22:57:44.518Z,4.90
2017-12-28T23:00:30.117Z,5.30
2017-12-28T23:03:06.088Z,5.00
2017-12-28T23:05:44.925Z,4.50
2017-12-28T23:11:04.006Z,5.10
2017-12-28T23:16:18.793Z,4.70
2017-12-28T23:18:53.122Z,5.00
2017-12-28T23:21:29.813Z,5.10
2017-12-28T23:24:05.242Z,5.00
2017-12-28T23:26:42.988Z,5.00
2017-12-28T23:29:17.234Z,5.00
2017-12-28T23:31:52.082Z,4.50
2017-12-28T23:34:32.869Z,4.50
2017-12-28T23:37:08.957Z,4.20
2017-12-28T23:39:46.289Z,4.10
2017-12-28T23:42:22.541Z,4.40
2017-12-28T23:44:59.076Z,3.90
2017-12-28T23:47:35.236Z,3.80
2017-12-28T23:50:09.260Z,3.90
